Time;durP1;ratioP1;P1;durP2;ratioP2;P2;SDS_P1;SDS_P2;PMS_P1;PMS_P2;Temp;Humidity;BMP_temperature;BMP_pressure;BME280_temperature;BME280_humidity;BME280_pressure;Samples;Min_cycle;Max_cycle;Signal;HPM_P1;HPM_P2
2021/04/05 00:01:24;;;;;;;20.13;8.57;;;6.90;62.90;;;;;;5069194;28;20313;-73
2021/04/05 00:03:50;;;;;;;23.40;7.20;;;6.90;62.90;;;;;;5067499;28;20496;-72
2021/04/05 00:06:18;;;;;;;12.10;7.47;;;6.90;62.90;;;;;;5068003;28;20477;-72
2021/04/05 00:08:44;;;;;;;17.70;7.67;;;6.90;62.80;;;;;;5072989;28;20242;-73
2021/04/05 00:11:10;;;;;;;15.70;6.63;;;6.90;62.90;;;;;;5072834;28;20924;-71
2021/04/05 00:13:39;;;;;;;11.83;6.50;;;6.90;62.90;;;;;;5071355;28;20425;-73
2021/04/05 00:16:05;;;;;;;12.87;6.80;;;6.90;62.90;;;;;;5059590;28;20530;-72
2021/04/05 00:18:31;;;;;;;14.80;7.37;;;6.90;62.90;;;;;;5072555;28;21085;-71
2021/04/05 00:21:05;;;;;;;16.13;7.40;;;6.90;63.10;;;;;;5072580;28;20456;-72
2021/04/05 00:23:31;;;;;;;13.77;7.00;;;6.90;62.90;;;;;;5072038;28;20983;-71
2021/04/05 00:25:56;;;;;;;19.53;7.27;;;6.90;62.90;;;;;;5066464;28;20485;-70
2021/04/05 00:28:22;;;;;;;12.87;7.00;;;6.90;63.20;;;;;;5071955;28;20422;-72
2021/04/05 00:30:48;;;;;;;9.20;5.93;;;6.90;63.40;;;;;;5070660;28;20188;-74
2021/04/05 00:33:14;;;;;;;13.33;6.90;;;6.90;63.40;;;;;;5071594;28;20262;-74
2021/04/05 00:35:40;;;;;;;17.00;7.30;;;6.90;63.40;;;;;;5069967;28;20549;-72
2021/04/05 00:38:11;;;;;;;12.37;6.83;;;6.80;63.90;;;;;;5071843;28;20184;-72
2021/04/05 00:40:47;;;;;;;13.07;7.17;;;6.80;64.10;;;;;;5070358;28;20430;-73
2021/04/05 00:43:13;;;;;;;15.37;6.67;;;6.70;64.20;;;;;;5061823;28;20445;-72
2021/04/05 00:45:39;;;;;;;12.27;6.60;;;6.60;64.80;;;;;;5070954;28;20470;-73
2021/04/05 00:48:06;;;;;;;16.10;6.50;;;6.60;65.00;;;;;;5072686;28;20419;-71
2021/04/05 00:50:32;;;;;;;13.10;7.23;;;6.50;65.00;;;;;;5071070;28;20426;-70
2021/04/05 00:52:58;;;;;;;17.90;6.97;;;6.50;65.10;;;;;;5070987;28;20503;-71
2021/04/05 00:55:25;;;;;;;13.40;6.10;;;6.50;65.10;;;;;;5071865;28;20257;-71
2021/04/05 00:57:51;;;;;;;12.77;6.37;;;6.60;64.70;;;;;;5089945;28;20422;-73
2021/04/05 01:00:43;;;;;;;10.50;5.67;;;6.70;64.20;;;;;;5087057;28;20433;-72
2021/04/05 01:03:12;;;;;;;10.53;5.37;;;6.80;63.80;;;;;;5070213;28;20941;-72
2021/04/05 01:05:39;;;;;;;11.97;5.70;;;6.90;63.10;;;;;;5072412;28;20493;-72
2021/04/05 01:08:05;;;;;;;12.67;6.70;;;7.00;62.80;;;;;;5072416;28;20419;-72
2021/04/05 01:10:32;;;;;;;9.20;5.83;;;6.90;62.60;;;;;;5073578;28;20491;-71
2021/04/05 01:12:58;;;;;;;13.50;6.33;;;7.00;62.50;;;;;;5071843;28;20503;-72
2021/04/05 01:15:24;;;;;;;14.60;5.57;;;7.10;62.20;;;;;;5074449;28;20428;-73
2021/04/05 01:17:51;;;;;;;12.27;6.10;;;7.20;61.90;;;;;;5079760;28;20422;-71
2021/04/05 01:20:18;;;;;;;12.47;6.07;;;7.20;61.90;;;;;;5082528;28;20425;-71
2021/04/05 01:22:46;;;;;;;12.87;6.00;;;7.20;62.00;;;;;;5077127;28;20428;-70
2021/04/05 01:25:14;;;;;;;12.90;5.93;;;7.20;61.70;;;;;;5075743;28;20469;-73
2021/04/05 01:27:41;;;;;;;13.53;6.77;;;7.20;62.00;;;;;;5080897;28;20429;-71
2021/04/05 01:30:33;;;;;;;14.77;6.77;;;7.10;62.60;;;;;;5070384;28;20461;-70
2021/04/05 01:33:36;;;;;;;11.17;6.23;;;7.10;63.10;;;;;;5076057;28;20429;-73
2021/04/05 01:36:12;;;;;;;12.03;6.03;;;7.00;63.40;;;;;;5073709;28;20488;-72
2021/04/05 01:38:46;;;;;;;9.57;5.57;;;6.80;63.80;;;;;;5072718;28;20862;-69
2021/04/05 01:41:20;;;;;;;11.03;6.10;;;6.70;64.40;;;;;;5060939;28;20430;-73
2021/04/05 01:43:45;;;;;;;13.07;6.33;;;6.80;64.40;;;;;;5070434;28;20438;-73
2021/04/05 01:46:13;;;;;;;12.63;6.10;;;6.80;64.20;;;;;;5070081;28;20477;-74
2021/04/05 01:48:40;;;;;;;13.47;6.10;;;6.80;64.50;;;;;;5071388;28;20179;-74
2021/04/05 01:51:12;;;;;;;11.00;6.20;;;6.60;65.10;;;;;;5072106;28;20482;-70
2021/04/05 01:53:39;;;;;;;14.13;6.60;;;6.40;66.10;;;;;;5070665;28;20579;-73
2021/04/05 01:56:08;;;;;;;11.37;7.07;;;6.30;66.60;;;;;;5074937;28;20449;-72
2021/04/05 01:58:38;;;;;;;11.50;6.33;;;6.10;67.50;;;;;;5073435;28;20442;-71
2021/04/05 02:01:05;;;;;;;11.83;6.23;;;6.10;67.70;;;;;;5074940;28;20430;-71
2021/04/05 02:03:32;;;;;;;16.50;6.47;;;6.10;67.90;;;;;;5073910;28;20441;-73
2021/04/05 02:06:13;;;;;;;11.83;6.03;;;6.10;67.90;;;;;;5069342;28;20549;-73
2021/04/05 02:08:40;;;;;;;8.03;5.60;;;6.10;67.90;;;;;;5069397;28;20882;-71
2021/04/05 02:11:09;;;;;;;13.90;5.73;;;6.00;68.30;;;;;;5070839;28;20429;-73
2021/04/05 02:13:35;;;;;;;15.80;6.93;;;6.00;68.30;;;;;;5070359;28;20452;-72
2021/04/05 02:16:01;;;;;;;10.60;5.50;;;6.00;68.20;;;;;;5070360;28;20446;-72
2021/04/05 02:18:27;;;;;;;10.60;6.10;;;5.90;68.60;;;;;;5070721;28;20449;-72
2021/04/05 02:20:53;;;;;;;9.30;5.87;;;5.80;68.90;;;;;;5071016;28;20482;-73
2021/04/05 02:23:20;;;;;;;10.20;6.10;;;5.90;69.10;;;;;;5070412;28;20294;-73
2021/04/05 02:26:07;;;;;;;12.00;5.97;;;5.90;69.10;;;;;;5070405;28;20470;-73
2021/04/05 02:28:39;;;;;;;9.17;5.83;;;6.00;68.80;;;;;;5070038;28;20421;-71
2021/04/05 02:31:07;;;;;;;13.33;6.37;;;6.00;68.90;;;;;;5070613;28;20433;-73
2021/04/05 02:33:40;;;;;;;13.83;6.07;;;6.00;69.10;;;;;;5070291;28;20509;-73
2021/04/05 02:36:08;;;;;;;13.70;6.07;;;6.00;68.90;;;;;;5070329;28;20445;-71
2021/04/05 02:38:39;;;;;;;11.80;6.17;;;6.00;68.80;;;;;;5065614;28;20956;-72
2021/04/05 02:41:09;;;;;;;13.80;5.50;;;6.10;68.60;;;;;;5065852;28;20424;-72
2021/04/05 02:43:39;;;;;;;12.07;6.13;;;6.10;68.50;;;;;;5070009;28;20919;-72
2021/04/05 02:46:06;;;;;;;12.77;5.50;;;6.10;68.30;;;;;;5069847;28;20466;-70
2021/04/05 02:48:35;;;;;;;10.47;5.30;;;6.20;67.60;;;;;;5065448;28;21040;-73
2021/04/05 02:51:03;;;;;;;12.20;6.57;;;6.20;67.60;;;;;;5067350;28;21237;-72
2021/04/05 02:53:30;;;;;;;10.00;5.00;;;6.20;67.60;;;;;;5069578;28;20791;-71
2021/04/05 02:56:01;;;;;;;12.50;6.00;;;6.20;67.50;;;;;;5065221;28;20482;-72
2021/04/05 02:58:27;;;;;;;12.40;5.27;;;6.20;67.20;;;;;;5062280;28;20422;-72
2021/04/05 03:00:53;;;;;;;14.70;5.73;;;6.20;67.60;;;;;;5070244;28;20862;-71
2021/04/05 03:03:19;;;;;;;11.40;6.03;;;6.10;67.90;;;;;;5065396;28;20514;-71
2021/04/05 03:05:46;;;;;;;13.40;6.40;;;6.00;67.90;;;;;;5068132;28;20224;-71
2021/04/05 03:08:12;;;;;;;16.60;6.20;;;5.90;68.30;;;;;;5070150;28;20461;-73
2021/04/05 03:10:37;;;;;;;11.93;5.50;;;5.90;68.60;;;;;;5070265;28;20458;-72
2021/04/05 03:13:04;;;;;;;10.07;6.37;;;5.80;68.90;;;;;;5064971;28;20435;-72
2021/04/05 03:15:30;;;;;;;9.23;5.70;;;5.70;69.80;;;;;;5068226;28;20442;-72
2021/04/05 03:18:01;;;;;;;14.70;5.47;;;5.60;70.20;;;;;;5070051;28;20455;-72
2021/04/05 03:20:32;;;;;;;10.50;6.03;;;5.60;70.50;;;;;;5065323;28;20430;-71
2021/04/05 03:22:59;;;;;;;10.97;5.73;;;5.60;70.70;;;;;;5063219;28;20489;-72
2021/04/05 03:25:27;;;;;;;13.10;6.30;;;5.60;70.70;;;;;;5065655;28;20470;-72
2021/04/05 03:27:53;;;;;;;15.27;6.77;;;5.50;71.00;;;;;;5071095;28;21086;-72
2021/04/05 03:30:21;;;;;;;11.87;6.07;;;5.40;71.70;;;;;;5071702;28;20423;-72
2021/04/05 03:32:50;;;;;;;14.60;7.47;;;5.40;72.10;;;;;;5064235;28;20421;-71
2021/04/05 03:35:21;;;;;;;10.37;6.70;;;5.40;71.80;;;;;;5070000;28;20434;-72
2021/04/05 03:37:48;;;;;;;13.70;6.20;;;5.40;71.80;;;;;;5068699;28;20459;-74
2021/04/05 03:40:15;;;;;;;14.20;6.50;;;5.30;71.80;;;;;;5069992;28;20456;-71
2021/04/05 03:43:07;;;;;;;12.23;6.00;;;5.30;72.10;;;;;;5072988;28;20470;-73
2021/04/05 03:45:49;;;;;;;13.43;5.57;;;5.30;72.40;;;;;;5072238;28;20566;-72
2021/04/05 03:48:20;;;;;;;15.10;6.77;;;5.30;72.60;;;;;;5072691;28;20429;-71
2021/04/05 03:51:02;;;;;;;12.93;5.70;;;5.30;72.70;;;;;;5073630;28;20833;-74
2021/04/05 03:53:46;;;;;;;11.50;6.03;;;5.40;72.70;;;;;;5073372;28;20875;-70
2021/04/05 03:56:17;;;;;;;13.57;6.13;;;5.40;72.30;;;;;;5075037;28;21014;-72
2021/04/05 03:58:46;;;;;;;12.07;6.43;;;5.40;72.40;;;;;;5078092;28;20852;-71
2021/04/05 04:01:17;;;;;;;14.30;6.90;;;5.40;72.60;;;;;;5077289;28;20426;-72
2021/04/05 04:04:06;;;;;;;16.20;7.30;;;5.40;72.60;;;;;;5076908;28;20413;-71
2021/04/05 04:06:56;;;;;;;13.57;6.63;;;5.40;72.60;;;;;;5073397;28;20441;-71
2021/04/05 04:09:25;;;;;;;13.50;6.53;;;5.40;72.40;;;;;;5073479;28;20413;-71
2021/04/05 04:11:53;;;;;;;13.73;6.63;;;5.40;72.70;;;;;;5071657;28;20504;-73
2021/04/05 04:14:19;;;;;;;14.07;6.43;;;5.30;73.20;;;;;;5072800;28;20414;-71
2021/04/05 04:16:47;;;;;;;14.77;5.67;;;5.30;73.20;;;;;;5071687;28;20492;-73
2021/04/05 04:19:14;;;;;;;11.37;6.23;;;5.40;73.00;;;;;;5073179;28;20184;-71
2021/04/05 04:21:43;;;;;;;9.70;6.03;;;5.50;72.40;;;;;;5072520;28;20513;-71
2021/04/05 04:24:09;;;;;;;11.03;5.80;;;5.60;72.00;;;;;;5071503;28;20461;-72
2021/04/05 04:26:36;;;;;;;12.53;6.03;;;5.60;71.40;;;;;;5068099;28;20795;-71
2021/04/05 04:29:03;;;;;;;11.23;5.73;;;5.70;71.00;;;;;;5062771;28;20446;-73
2021/04/05 04:31:30;;;;;;;12.87;6.20;;;5.80;70.50;;;;;;5072119;28;20524;-73
2021/04/05 04:33:55;;;;;;;10.13;5.70;;;5.90;69.90;;;;;;5072588;28;20418;-72
2021/04/05 04:36:31;;;;;;;7.80;5.43;;;5.90;69.50;;;;;;5072118;28;20801;-73
2021/04/05 04:38:57;;;;;;;19.50;6.07;;;6.00;68.60;;;;;;5067618;28;20188;-70
2021/04/05 04:41:28;;;;;;;11.33;6.10;;;6.20;67.60;;;;;;5070912;28;20479;-72
2021/04/05 04:43:59;;;;;;;12.43;5.77;;;6.20;67.20;;;;;;5068172;28;20430;-72
2021/04/05 04:46:25;;;;;;;8.50;5.27;;;6.30;66.90;;;;;;5070567;28;20480;-73
2021/04/05 04:49:14;;;;;;;10.23;5.60;;;6.30;67.50;;;;;;5072585;28;21014;-71
2021/04/05 04:51:40;;;;;;;12.73;6.47;;;6.30;67.30;;;;;;5063779;28;20438;-72
2021/04/05 04:54:09;;;;;;;10.77;6.00;;;6.20;67.30;;;;;;5069295;28;20418;-72
2021/04/05 04:56:35;;;;;;;11.60;5.50;;;6.10;68.00;;;;;;5072059;28;20469;-71
2021/04/05 04:59:04;;;;;;;11.73;5.77;;;6.10;68.00;;;;;;5072529;28;20430;-71
2021/04/05 05:01:31;;;;;;;12.03;5.40;;;6.10;68.20;;;;;;5072061;28;20428;-72
2021/04/05 05:04:04;;;;;;;11.20;6.30;;;6.00;68.30;;;;;;5072591;28;20414;-70
2021/04/05 05:06:31;;;;;;;11.60;5.63;;;6.10;68.60;;;;;;5072129;28;20473;-71
2021/04/05 05:08:57;;;;;;;16.17;5.93;;;6.00;68.80;;;;;;5067907;28;20419;-73
2021/04/05 05:11:25;;;;;;;12.53;5.30;;;6.10;68.50;;;;;;5065370;28;20948;-72
2021/04/05 05:13:51;;;;;;;10.90;5.80;;;6.00;68.50;;;;;;5076593;28;20445;-72
2021/04/05 05:16:18;;;;;;;11.93;5.87;;;6.10;68.50;;;;;;5075686;28;20495;-71
2021/04/05 05:18:44;;;;;;;17.47;5.50;;;6.10;68.00;;;;;;5070726;28;21126;-73
2021/04/05 05:21:18;;;;;;;10.83;5.70;;;6.10;68.00;;;;;;5064091;28;20429;-72
2021/04/05 05:23:45;;;;;;;18.33;6.00;;;6.20;67.90;;;;;;5076623;28;20175;-73
2021/04/05 05:26:12;;;;;;;15.93;5.03;;;6.20;67.50;;;;;;5080332;28;20492;-72
2021/04/05 05:28:39;;;;;;;16.30;5.83;;;6.20;67.20;;;;;;5063548;28;20759;-72
2021/04/05 05:31:05;;;;;;;9.77;4.87;;;6.30;67.30;;;;;;5072303;28;20426;-74
2021/04/05 05:33:33;;;;;;;16.43;6.80;;;6.40;66.90;;;;;;5071561;28;20425;-74
2021/04/05 05:35:59;;;;;;;11.13;4.90;;;6.40;66.60;;;;;;5071349;28;20445;-72
2021/04/05 05:38:25;;;;;;;13.37;5.57;;;6.50;66.60;;;;;;5067109;28;20485;-70
2021/04/05 05:40:53;;;;;;;11.57;5.27;;;6.50;66.30;;;;;;5064168;28;20969;-72
2021/04/05 05:43:48;;;;;;;14.80;5.83;;;6.50;66.40;;;;;;5066395;28;20954;-73
2021/04/05 05:46:40;;;;;;;9.70;5.03;;;6.50;66.60;;;;;;5068873;28;20497;-73
2021/04/05 05:49:20;;;;;;;15.97;5.57;;;6.60;66.30;;;;;;5009295;28;20436;-74
2021/04/05 05:51:51;;;;;;;11.77;5.40;;;6.60;66.40;;;;;;4992742;28;20515;-71
2021/04/05 05:54:44;;;;;;;12.10;5.90;;;6.60;66.40;;;;;;4992610;28;20425;-71
2021/04/05 05:57:30;;;;;;;11.97;5.20;;;6.70;66.00;;;;;;5012776;28;20981;-72
2021/04/05 06:00:07;;;;;;;7.67;5.00;;;6.80;65.80;;;;;;5000707;28;20433;-71
2021/04/05 06:02:36;;;;;;;15.33;7.23;;;6.80;65.80;;;;;;5008887;28;20437;-71
2021/04/05 06:05:28;;;;;;;11.73;5.70;;;6.80;65.10;;;;;;5008495;28;20472;-73
2021/04/05 06:08:39;;;;;;;10.10;5.77;;;6.90;65.30;;;;;;4985741;28;20419;-73
2021/04/05 06:11:17;;;;;;;12.97;5.90;;;7.00;65.00;;;;;;4977859;28;20827;-72
2021/04/05 06:14:08;;;;;;;10.33;5.40;;;7.00;64.70;;;;;;4989055;28;20492;-71
2021/04/05 06:16:33;;;;;;;11.23;5.57;;;7.10;64.50;;;;;;4989068;28;20453;-72
2021/04/05 06:18:59;;;;;;;13.20;5.93;;;7.10;63.70;;;;;;4989039;28;20436;-71
2021/04/05 06:21:49;;;;;;;12.20;5.43;;;7.20;63.50;;;;;;4988449;28;20218;-73
2021/04/05 06:24:54;;;;;;;8.60;4.90;;;7.20;63.70;;;;;;4972707;28;20199;-72
2021/04/05 06:27:44;;;;;;;10.20;5.40;;;7.30;63.40;;;;;;5040812;28;20438;-72
2021/04/05 06:30:25;;;;;;;14.00;5.50;;;7.40;62.90;;;;;;5048899;28;20427;-73
2021/04/05 06:33:20;;;;;;;12.50;5.90;;;7.50;62.60;;;;;;5031435;28;20426;-70
2021/04/05 06:36:00;;;;;;;13.70;5.57;;;7.60;62.20;;;;;;5047952;28;20795;-73
2021/04/05 06:38:34;;;;;;;8.43;5.27;;;7.70;61.60;;;;;;5048348;28;21026;-72
2021/04/05 06:41:33;;;;;;;16.83;6.37;;;7.80;61.50;;;;;;5048211;28;20452;-72
2021/04/05 06:44:29;;;;;;;12.47;5.53;;;8.00;60.60;;;;;;5053412;28;20445;-73
2021/04/05 06:47:22;;;;;;;9.60;5.30;;;8.20;59.50;;;;;;5071176;28;20806;-71
2021/04/05 06:49:48;;;;;;;10.27;4.33;;;8.30;58.80;;;;;;5069275;28;20418;-71
2021/04/05 06:52:30;;;;;;;15.50;5.40;;;8.40;58.50;;;;;;5070133;28;20430;-72
2021/04/05 06:55:27;;;;;;;10.07;4.57;;;8.50;58.10;;;;;;5070640;28;20183;-71
2021/04/05 06:58:24;;;;;;;12.10;5.00;;;8.50;57.70;;;;;;5070056;28;20430;-74
2021/04/05 07:01:08;;;;;;;10.50;4.80;;;8.70;57.40;;;;;;5072951;28;20454;-72
2021/04/05 07:03:58;;;;;;;13.23;5.10;;;8.60;56.90;;;;;;5072494;28;20497;-73
2021/04/05 07:06:47;;;;;;;11.17;5.27;;;8.60;57.20;;;;;;5071498;28;20465;-74
2021/04/05 07:09:34;;;;;;;14.73;5.73;;;8.70;56.90;;;;;;5072964;28;20422;-73
2021/04/05 07:12:30;;;;;;;9.70;5.37;;;8.80;56.50;;;;;;5065734;28;20415;-71
2021/04/05 07:15:04;;;;;;;8.53;4.80;;;8.80;56.90;;;;;;5066070;28;20434;-71
2021/04/05 07:18:04;;;;;;;12.20;5.57;;;8.80;56.80;;;;;;5068909;28;20438;-72
2021/04/05 07:20:58;;;;;;;12.17;4.90;;;8.80;57.00;;;;;;5051207;28;20430;-73
2021/04/05 07:23:36;;;;;;;12.93;5.53;;;9.00;56.80;;;;;;5069029;28;20864;-71
2021/04/05 07:26:24;;;;;;;10.53;5.47;;;8.90;56.50;;;;;;5067564;28;21080;-71
2021/04/05 07:29:01;;;;;;;14.43;5.67;;;9.00;56.20;;;;;;5058801;28;20422;-71
2021/04/05 07:31:55;;;;;;;12.10;5.60;;;9.10;56.20;;;;;;5070610;28;20428;-70
2021/04/05 07:34:27;;;;;;;11.37;4.80;;;9.10;55.80;;;;;;5070367;28;20417;-72
2021/04/05 07:37:00;;;;;;;14.60;4.67;;;9.30;56.00;;;;;;5070520;28;20569;-70
2021/04/05 07:39:37;;;;;;;14.90;5.17;;;9.30;55.60;;;;;;5070375;28;20972;-71
2021/04/05 07:42:32;;;;;;;12.60;5.90;;;9.40;55.30;;;;;;5085629;28;20775;-71
2021/04/05 07:45:10;;;;;;;8.80;5.60;;;9.40;55.30;;;;;;5027477;28;20480;-72
2021/04/05 07:47:59;;;;;;;14.90;4.90;;;9.50;54.90;;;;;;5014920;28;20420;-73
2021/04/05 07:50:35;;;;;;;11.40;4.53;;;9.60;54.80;;;;;;5016298;28;20417;-73
2021/04/05 07:53:11;;;;;;;13.30;5.23;;;9.70;54.50;;;;;;5021204;28;20444;-72
2021/04/05 07:55:39;;;;;;;11.30;4.80;;;9.70;54.50;;;;;;5020874;28;20451;-72
2021/04/05 07:58:40;;;;;;;12.00;5.17;;;9.80;54.50;;;;;;5007896;28;20425;-71
2021/04/05 08:01:16;;;;;;;11.57;5.50;;;9.90;54.00;;;;;;5020965;28;20432;-71
2021/04/05 08:04:00;;;;;;;11.60;5.50;;;10.10;53.80;;;;;;4992432;28;20515;-72
2021/04/05 08:06:36;;;;;;;11.23;5.57;;;10.30;53.40;;;;;;5017274;28;20468;-72
2021/04/05 08:09:09;;;;;;;12.30;5.73;;;10.50;52.60;;;;;;5025623;28;20446;-73
2021/04/05 08:12:01;;;;;;;10.50;4.93;;;10.70;52.20;;;;;;4999358;28;20838;-72
2021/04/05 08:15:00;;;;;;;16.73;5.20;;;10.90;51.80;;;;;;4991333;28;20432;-73
2021/04/05 08:17:46;;;;;;;12.30;5.00;;;11.00;51.70;;;;;;5027477;28;20440;-72
2021/04/05 08:20:22;;;;;;;10.03;5.03;;;11.30;51.00;;;;;;5014440;28;20810;-71
2021/04/05 08:22:57;;;;;;;10.20;5.00;;;11.50;50.20;;;;;;5057335;28;20426;-73
2021/04/05 08:25:54;;;;;;;15.87;5.90;;;11.80;49.80;;;;;;5078626;28;20464;-73
2021/04/05 08:28:42;;;;;;;13.33;5.03;;;12.00;49.80;;;;;;5065247;28;20749;-73
2021/04/05 08:31:32;;;;;;;15.00;6.00;;;12.20;48.90;;;;;;5077033;28;20492;-72
2021/04/05 08:34:16;;;;;;;11.97;5.07;;;12.10;48.90;;;;;;5073471;28;20395;-71
2021/04/05 08:36:49;;;;;;;9.23;4.60;;;12.20;48.70;;;;;;5060349;28;20474;-72
2021/04/05 08:39:25;;;;;;;11.67;4.70;;;12.30;48.30;;;;;;5073689;28;20496;-72
2021/04/05 08:42:17;;;;;;;8.27;4.40;;;12.40;48.20;;;;;;5068294;28;20427;-72
2021/04/05 08:44:52;;;;;;;9.20;4.30;;;12.60;47.80;;;;;;5071955;28;20489;-71
2021/04/05 08:47:30;;;;;;;13.37;4.33;;;12.60;47.30;;;;;;5075280;28;20441;-73
2021/04/05 08:50:01;;;;;;;12.70;3.67;;;12.70;44.50;;;;;;5075791;28;20414;-72
2021/04/05 08:52:30;;;;;;;9.80;3.50;;;12.60;44.10;;;;;;5075235;28;20441;-71
2021/04/05 08:55:00;;;;;;;9.23;3.50;;;12.60;42.60;;;;;;5073603;28;20772;-72
2021/04/05 08:58:10;;;;;;;6.90;3.27;;;12.50;41.10;;;;;;5073698;28;20441;-72
2021/04/05 09:00:45;;;;;;;7.33;3.37;;;12.60;40.00;;;;;;5075906;28;20426;-73
2021/04/05 09:03:14;;;;;;;10.40;3.70;;;12.50;40.40;;;;;;5073195;28;20479;-73
2021/04/05 09:05:46;;;;;;;10.73;4.17;;;12.60;40.60;;;;;;5077056;28;20469;-75
2021/04/05 09:08:13;;;;;;;11.00;4.40;;;12.60;41.10;;;;;;5075581;28;20813;-71
2021/04/05 09:10:51;;;;;;;14.93;4.30;;;12.40;41.50;;;;;;5077691;28;20422;-73
2021/04/05 09:13:24;;;;;;;10.03;3.80;;;12.40;41.50;;;;;;5080681;28;20430;-73
2021/04/05 09:16:24;;;;;;;12.23;3.77;;;12.40;42.00;;;;;;5072119;28;20446;-73
2021/04/05 09:19:04;;;;;;;9.17;4.07;;;12.30;42.70;;;;;;5074785;28;20862;-73
2021/04/05 09:22:00;;;;;;;11.60;4.33;;;12.00;43.00;;;;;;5072676;28;20414;-72
2021/04/05 09:24:44;;;;;;;9.30;4.50;;;11.80;43.50;;;;;;5072809;28;20414;-73
2021/04/05 09:27:34;;;;;;;13.10;4.50;;;11.70;44.10;;;;;;5064586;28;20449;-72
2021/04/05 09:30:30;;;;;;;16.40;4.87;;;11.80;44.20;;;;;;5075832;28;20430;-73
2021/04/05 09:33:28;;;;;;;9.67;5.43;;;11.70;45.00;;;;;;5074503;28;20406;-73
2021/04/05 09:36:21;;;;;;;12.43;5.00;;;11.70;44.70;;;;;;5074559;28;20442;-73
2021/04/05 09:39:16;;;;;;;12.67;4.27;;;11.70;44.60;;;;;;5072424;28;20470;-72
2021/04/05 09:42:08;;;;;;;10.10;3.80;;;11.80;43.80;;;;;;5049979;28;20434;-73
2021/04/05 09:45:00;;;;;;;11.33;3.50;;;11.80;43.10;;;;;;5072614;28;20505;-72
2021/04/05 09:47:54;;;;;;;8.80;4.10;;;11.70;43.10;;;;;;5073624;28;20446;-72
2021/04/05 09:50:56;;;;;;;12.07;3.97;;;11.80;43.40;;;;;;5072509;28;20425;-73
2021/04/05 09:53:43;;;;;;;6.87;3.20;;;11.80;42.60;;;;;;5073938;28;20453;-74
2021/04/05 09:56:17;;;;;;;7.00;3.20;;;11.90;42.60;;;;;;5072625;28;20479;-72
2021/04/05 09:58:49;;;;;;;7.20;3.47;;;12.20;41.60;;;;;;5073178;28;20436;-72
2021/04/05 10:01:25;;;;;;;5.67;3.50;;;12.40;40.80;;;;;;5075556;28;20430;-72
2021/04/05 10:03:56;;;;;;;7.53;3.87;;;12.30;39.50;;;;;;5072822;28;20410;-72
2021/04/05 10:06:24;;;;;;;9.43;3.43;;;12.20;39.20;;;;;;5067262;28;20565;-73
2021/04/05 10:08:52;;;;;;;7.40;3.40;;;12.10;39.20;;;;;;5062557;28;21059;-71
2021/04/05 10:11:18;;;;;;;15.03;4.37;;;11.90;39.10;;;;;;5070612;28;20611;-71
2021/04/05 10:13:48;;;;;;;9.43;3.67;;;11.70;39.90;;;;;;5072111;28;20463;-71
2021/04/05 10:16:19;;;;;;;6.50;3.80;;;11.70;40.40;;;;;;5071321;28;21003;-71
2021/04/05 10:19:09;;;;;;;9.00;3.80;;;12.00;39.80;;;;;;5073901;28;20806;-71
2021/04/05 10:21:40;;;;;;;7.67;3.50;;;12.20;39.50;;;;;;5064922;28;20563;-71
2021/04/05 10:24:07;;;;;;;7.40;4.00;;;12.30;38.70;;;;;;5071785;28;20418;-73
2021/04/05 10:26:37;;;;;;;6.97;3.17;;;12.10;38.40;;;;;;5060281;28;20519;-72
2021/04/05 10:29:09;;;;;;;5.93;3.17;;;12.10;38.80;;;;;;5070659;28;20422;-71
2021/04/05 10:31:37;;;;;;;12.53;4.43;;;12.00;39.10;;;;;;5070257;28;20446;-73
2021/04/05 10:34:10;;;;;;;8.23;3.53;;;12.20;39.00;;;;;;5069923;28;20875;-73
2021/04/05 10:36:45;;;;;;;13.20;4.40;;;12.30;38.40;;;;;;5071129;28;20442;-72
2021/04/05 10:39:11;;;;;;;10.20;3.30;;;12.30;37.90;;;;;;5069791;28;20432;-71
2021/04/05 10:42:02;;;;;;;7.80;3.50;;;12.40;37.80;;;;;;5069724;28;20455;-74
2021/04/05 10:44:32;;;;;;;8.50;3.30;;;12.50;36.70;;;;;;5067954;28;20939;-72
2021/04/05 10:47:01;;;;;;;10.57;4.37;;;12.60;36.70;;;;;;5071383;28;20936;-72
2021/04/05 10:49:30;;;;;;;8.00;3.63;;;12.90;35.70;;;;;;5071994;28;20509;-74
2021/04/05 10:52:14;;;;;;;7.70;3.90;;;12.80;34.90;;;;;;5060843;28;20438;-73
2021/04/05 10:54:41;;;;;;;8.10;3.87;;;12.70;35.30;;;;;;5061374;28;20456;-73
2021/04/05 10:57:12;;;;;;;11.13;3.50;;;12.60;35.10;;;;;;5081131;28;20929;-71
2021/04/05 10:59:58;;;;;;;7.03;3.70;;;12.70;35.10;;;;;;5067497;28;20921;-72
2021/04/05 11:02:41;;;;;;;7.43;3.53;;;12.50;34.90;;;;;;5068793;28;20780;-71
2021/04/05 11:05:10;;;;;;;13.00;3.73;;;12.30;35.20;;;;;;5069356;28;20563;-71
2021/04/05 11:07:39;;;;;;;12.93;4.27;;;12.20;35.50;;;;;;5070768;28;20957;-72
2021/04/05 11:10:08;;;;;;;9.90;3.80;;;12.30;35.60;;;;;;5070443;28;20425;-72
2021/04/05 11:12:40;;;;;;;10.37;3.80;;;12.40;35.50;;;;;;5069051;28;20431;-72
2021/04/05 11:15:12;;;;;;;10.03;3.53;;;12.60;34.90;;;;;;5068803;28;20507;-72
2021/04/05 11:17:49;;;;;;;6.00;3.07;;;12.80;34.30;;;;;;5069247;28;20980;-71
2021/04/05 11:20:17;;;;;;;7.83;2.97;;;13.00;34.40;;;;;;5070252;28;20888;-73
2021/04/05 11:22:44;;;;;;;12.23;4.53;;;13.10;33.90;;;;;;5069595;28;20472;-73
2021/04/05 11:25:19;;;;;;;5.60;3.43;;;13.20;33.70;;;;;;5069530;28;20462;-73
2021/04/05 11:27:59;;;;;;;7.50;3.00;;;13.10;34.30;;;;;;5068762;28;20466;-73
2021/04/05 11:30:28;;;;;;;9.07;4.07;;;13.40;34.30;;;;;;5057410;28;20422;-73
2021/04/05 11:32:55;;;;;;;10.97;4.20;;;13.60;35.20;;;;;;5069485;28;20414;-72
2021/04/05 11:35:28;;;;;;;11.60;4.63;;;13.40;37.40;;;;;;5068683;28;20430;-73
2021/04/05 11:37:58;;;;;;;13.70;5.17;;;13.20;38.70;;;;;;5069876;28;20453;-72
2021/04/05 11:40:28;;;;;;;12.20;5.23;;;13.00;39.00;;;;;;5070484;28;20475;-72
2021/04/05 11:42:58;;;;;;;8.13;4.80;;;12.90;39.60;;;;;;5066916;28;20444;-71
2021/04/05 11:45:32;;;;;;;14.90;6.03;;;12.80;40.80;;;;;;5066699;28;20871;-72
2021/04/05 11:48:02;;;;;;;10.53;5.00;;;13.10;40.70;;;;;;5056812;28;20515;-74
2021/04/05 11:50:28;;;;;;;20.53;5.80;;;13.30;40.80;;;;;;5066928;28;20797;-73
2021/04/05 11:53:01;;;;;;;20.53;6.90;;;13.40;40.80;;;;;;5057661;28;20454;-73
2021/04/05 11:55:31;;;;;;;15.53;5.60;;;13.40;41.20;;;;;;5064439;28;21079;-75
2021/04/05 11:58:00;;;;;;;14.87;6.90;;;13.20;42.30;;;;;;5066366;28;20414;-73
2021/04/05 12:00:43;;;;;;;18.90;5.90;;;12.90;43.40;;;;;;5063796;28;20445;-73
2021/04/05 12:03:35;;;;;;;18.67;6.50;;;13.00;43.70;;;;;;5069205;28;20475;-72
2021/04/05 12:06:21;;;;;;;17.90;7.37;;;12.80;44.20;;;;;;5053764;28;20509;-74
2021/04/05 12:08:55;;;;;;;17.40;6.60;;;12.50;44.90;;;;;;5066387;28;20434;-73
2021/04/05 12:11:39;;;;;;;18.47;7.83;;;12.50;45.30;;;;;;5070284;28;20438;-72
2021/04/05 12:14:20;;;;;;;15.90;6.37;;;12.60;44.90;;;;;;5069193;28;20420;-72
2021/04/05 12:16:51;;;;;;;22.63;7.57;;;12.60;45.40;;;;;;5067401;28;20461;-71
2021/04/05 12:19:29;;;;;;;17.70;7.53;;;12.40;46.10;;;;;;5071209;28;20429;-73
2021/04/05 12:21:56;;;;;;;19.60;7.37;;;12.30;47.00;;;;;;5064847;28;20949;-74
2021/04/05 12:24:29;;;;;;;16.67;6.63;;;12.10;47.80;;;;;;5082955;28;20516;-74
2021/04/05 12:27:03;;;;;;;16.03;7.10;;;12.10;48.30;;;;;;5072187;28;20446;-73
2021/04/05 12:29:30;;;;;;;17.77;7.47;;;12.10;48.90;;;;;;5071458;28;20470;-72
2021/04/05 12:31:58;;;;;;;19.73;8.43;;;12.00;49.30;;;;;;5070177;28;20413;-72
2021/04/05 12:34:30;;;;;;;14.10;8.03;;;11.90;50.20;;;;;;5067266;28;20463;-72
2021/04/05 12:37:01;;;;;;;23.77;8.50;;;11.70;51.80;;;;;;5070034;28;20465;-71
2021/04/05 12:39:32;;;;;;;18.47;7.77;;;11.80;52.50;;;;;;5070043;28;20491;-74
2021/04/05 12:41:59;;;;;;;24.47;8.30;;;11.90;52.50;;;;;;5070364;28;20413;-71
2021/04/05 12:44:30;;;;;;;21.53;9.60;;;11.90;52.90;;;;;;5070419;28;20437;-72
2021/04/05 12:47:00;;;;;;;25.03;10.00;;;11.70;53.60;;;;;;5069515;28;20442;-74
2021/04/05 12:49:34;;;;;;;22.10;8.77;;;11.70;53.00;;;;;;5059897;28;20523;-71
2021/04/05 12:52:04;;;;;;;18.63;7.43;;;11.70;53.70;;;;;;5074850;28;20434;-73
2021/04/05 12:54:32;;;;;;;19.97;8.37;;;11.70;53.20;;;;;;5073782;28;20414;-71
2021/04/05 12:57:01;;;;;;;28.00;10.10;;;11.80;53.30;;;;;;5057057;28;20869;-72
2021/04/05 12:59:28;;;;;;;22.00;9.50;;;11.60;54.10;;;;;;5075537;28;20430;-71
2021/04/05 13:02:02;;;;;;;16.60;9.13;;;11.50;55.30;;;;;;5071143;28;20481;-73
2021/04/05 13:04:31;;;;;;;18.70;8.50;;;11.60;55.20;;;;;;5067015;28;20418;-72
2021/04/05 13:07:15;;;;;;;18.73;9.40;;;11.70;54.40;;;;;;5069615;28;20517;-72
2021/04/05 13:09:43;;;;;;;17.90;9.00;;;11.80;54.10;;;;;;5070540;28;20422;-73
2021/04/05 13:12:20;;;;;;;23.27;10.23;;;11.90;54.00;;;;;;5070221;28;20418;-72
2021/04/05 13:14:58;;;;;;;19.90;9.77;;;11.90;53.80;;;;;;5069302;28;20425;-70
2021/04/05 13:17:29;;;;;;;23.00;10.80;;;11.80;53.80;;;;;;5072636;28;20450;-70
2021/04/05 13:20:11;;;;;;;24.53;10.00;;;11.60;53.80;;;;;;5074911;28;20429;-73
2021/04/05 13:22:39;;;;;;;20.37;9.13;;;11.40;54.90;;;;;;5072998;28;21252;-71
2021/04/05 13:25:11;;;;;;;22.03;9.90;;;11.30;55.20;;;;;;5075598;28;20466;-73